Time;durP1;ratioP1;P1;durP2;ratioP2;P2;SDS_P1;SDS_P2;PMS_P1;PMS_P2;Temp;Humidity;BMP_temperature;BMP_pressure;BME280_temperature;BME280_humidity;BME280_pressure;Samples;Min_cycle;Max_cycle;Signal;HPM_P1;HPM_P2
2022/04/17 00:01:55;;;;;;;0.43;0.43;;;;;;;16.56;45.27;98601.13;4842805;29;20113;-74
2022/04/17 00:04:21;;;;;;;1.77;0.85;;;;;;;16.46;45.09;98603.06;4842763;29;20050;-76
2022/04/17 00:06:46;;;;;;;0.10;0.10;;;;;;;16.43;45.47;98597.53;4843237;29;20174;-76
2022/04/17 00:09:12;;;;;;;0.88;0.35;;;;;;;16.46;45.43;98605.78;4842987;29;20088;-76
2022/04/17 00:11:38;;;;;;;0.10;0.10;;;;;;;16.49;45.33;98613.25;4842655;29;20118;-76
2022/04/17 00:14:03;;;;;;;0.28;0.28;;;;;;;16.45;45.44;98614.22;4842093;29;20034;-73
2022/04/17 00:16:29;;;;;;;0.43;0.43;;;;;;;16.40;45.64;98615.19;4840975;29;20045;-75
2022/04/17 00:18:54;;;;;;;0.10;0.10;;;;;;;16.40;45.75;98620.56;4842168;29;20026;-75
2022/04/17 00:21:22;;;;;;;0.10;0.10;;;;;;;16.38;45.66;98619.31;4842794;29;20038;-76
2022/04/17 00:23:48;;;;;;;0.10;0.10;;;;;;;16.33;46.04;98615.69;4842644;29;20097;-75
2022/04/17 00:26:14;;;;;;;0.10;0.10;;;;;;;16.31;45.97;98612.53;4842418;29;20617;-75
2022/04/17 00:28:39;;;;;;;0.03;0.03;;;;;;;16.27;45.99;98598.13;4842615;29;20105;-75
2022/04/17 00:31:05;;;;;;;0.15;0.15;;;;;;;16.29;46.04;98605.88;4842121;29;20036;-75
2022/04/17 00:33:31;;;;;;;0.20;0.20;;;;;;;16.26;46.50;98610.00;4842312;29;20483;-75
2022/04/17 00:35:57;;;;;;;0.10;0.10;;;;;;;16.23;46.50;98604.47;4842256;29;20038;-75
2022/04/17 00:38:22;;;;;;;0.40;0.40;;;;;;;16.26;46.79;98615.41;4842465;29;20030;-75
2022/04/17 00:40:48;;;;;;;0.10;0.10;;;;;;;16.25;46.70;98608.44;4856239;29;20442;-76
2022/04/17 00:43:30;;;;;;;0.15;0.15;;;;;;;16.27;46.97;98608.91;4856370;29;20038;-75
2022/04/17 00:45:56;;;;;;;0.28;0.28;;;;;;;16.27;46.87;98608.91;4842121;29;20030;-75
2022/04/17 00:48:22;;;;;;;0.05;0.05;;;;;;;16.26;46.24;98601.13;4842609;29;20109;-75
2022/04/17 00:50:50;;;;;;;0.15;0.15;;;;;;;16.29;46.33;98592.38;4842013;29;20486;-75
2022/04/17 00:53:17;;;;;;;0.20;0.20;;;;;;;16.27;46.30;98590.03;4842242;29;20052;-75
2022/04/17 00:55:42;;;;;;;0.85;0.85;;;;;;;16.25;45.94;98589.53;4842196;29;20498;-75
2022/04/17 00:58:10;;;;;;;0.47;0.47;;;;;;;16.25;45.94;98602.25;4841935;29;20060;-75
2022/04/17 01:00:35;;;;;;;0.10;0.10;;;;;;;16.24;45.85;98598.75;4842088;29;20050;-76
2022/04/17 01:03:01;;;;;;;0.50;0.35;;;;;;;16.19;45.89;98607.03;4841851;29;20283;-75
2022/04/17 01:05:26;;;;;;;0.03;0.03;;;;;;;16.15;46.18;98604.19;4840763;29;20082;-75
2022/04/17 01:07:53;;;;;;;2.72;1.65;;;;;;;16.17;46.35;98591.19;4842000;29;20041;-75
2022/04/17 01:10:19;;;;;;;1.35;0.70;;;;;;;16.16;46.51;98597.69;4842128;29;20030;-76
2022/04/17 01:12:45;;;;;;;0.13;0.13;;;;;;;16.16;46.42;98615.75;4840619;29;20034;-76
2022/04/17 01:15:11;;;;;;;0.10;0.10;;;;;;;16.22;46.32;98633.38;4841927;29;20072;-76
2022/04/17 01:17:37;;;;;;;0.30;0.30;;;;;;;16.22;46.89;98629.88;4841673;29;20494;-76
2022/04/17 01:20:03;;;;;;;0.30;0.30;;;;;;;16.21;46.82;98631.78;4841160;29;20026;-76
2022/04/17 01:22:29;;;;;;;1.08;0.73;;;;;;;16.20;46.91;98638.28;4841251;29;20418;-76
2022/04/17 01:27:38;;;;;;;0.28;0.28;;;;;;;16.11;47.37;98632.94;4841339;29;20505;-76
2022/04/17 01:30:04;;;;;;;0.20;0.20;;;;;;;16.10;47.43;98638.63;4841360;29;20068;-75
2022/04/17 01:32:29;;;;;;;0.65;0.50;;;;;;;16.08;47.86;98638.97;4840270;29;20475;-76
2022/04/17 01:34:55;;;;;;;0.10;0.10;;;;;;;16.09;47.63;98637.84;4840974;29;20146;-74
2022/04/17 01:37:20;;;;;;;0.10;0.10;;;;;;;16.08;47.67;98641.66;4841487;29;20085;-75
2022/04/17 01:39:46;;;;;;;0.00;0.00;;;;;;;16.10;47.55;98644.84;4855379;29;20030;-75
2022/04/17 01:42:12;;;;;;;0.32;0.32;;;;;;;16.11;47.69;98637.53;4840900;29;20194;-75
2022/04/17 01:44:38;;;;;;;0.10;0.10;;;;;;;16.10;47.48;98639.44;4841563;29;20053;-76
2022/04/17 01:47:05;;;;;;;0.63;0.63;;;;;;;16.05;46.71;98628.03;4841046;29;20403;-76
2022/04/17 01:49:30;;;;;;;0.47;0.47;;;;;;;16.03;46.46;98630.25;4841220;29;20041;-76
2022/04/17 01:51:56;;;;;;;0.43;0.43;;;;;;;15.99;46.48;98624.69;4840934;29;20038;-76
2022/04/17 01:54:24;;;;;;;0.05;0.05;;;;;;;15.97;46.33;98625.03;4841199;29;20037;-74
2022/04/17 01:56:49;;;;;;;0.00;0.00;;;;;;;15.92;46.56;98616.34;4841182;29;20621;-75
2022/04/17 01:59:16;;;;;;;0.10;0.10;;;;;;;15.89;46.48;98609.66;4840782;29;20111;-75
2022/04/17 02:01:42;;;;;;;5.28;0.55;;;;;;;15.91;46.64;98618.22;4840723;29;20423;-74
2022/04/17 02:04:09;;;;;;;0.00;0.00;;;;;;;15.90;46.52;98607.78;4839584;29;20026;-74
2022/04/17 02:06:36;;;;;;;0.10;0.10;;;;;;;15.86;46.64;98614.94;4840656;29;20547;-75
2022/04/17 02:09:02;;;;;;;0.03;0.03;;;;;;;15.79;46.20;98610.00;4840738;29;20098;-74
2022/04/17 02:11:28;;;;;;;0.40;0.40;;;;;;;15.78;46.57;98613.78;4840877;29;20038;-75
2022/04/17 02:13:54;;;;;;;1.35;1.10;;;;;;;15.76;46.53;98603.34;4840999;29;20052;-74
2022/04/17 02:16:20;;;;;;;0.05;0.05;;;;;;;15.75;46.82;98612.53;4840839;29;20135;-74
2022/04/17 02:18:47;;;;;;;0.13;0.13;;;;;;;15.65;46.90;98619.06;4840581;29;20418;-74
2022/04/17 02:21:13;;;;;;;0.25;0.25;;;;;;;15.70;47.06;98620.78;4840279;29;20045;-74
2022/04/17 02:23:43;;;;;;;0.40;0.40;;;;;;;15.79;47.00;98621.56;4824383;29;20030;-74
2022/04/17 02:26:10;;;;;;;0.10;0.10;;;;;;;15.81;46.81;98621.25;4839243;29;20034;-75
2022/04/17 02:28:37;;;;;;;0.20;0.20;;;;;;;15.85;46.78;98624.91;4840367;29;20110;-74
2022/04/17 02:31:04;;;;;;;0.10;0.10;;;;;;;15.93;46.87;98617.91;4840365;29;20044;-75
2022/04/17 02:33:29;;;;;;;0.10;0.10;;;;;;;16.01;46.97;98625.19;4840588;29;20118;-76
2022/04/17 02:35:55;;;;;;;0.17;0.17;;;;;;;16.09;46.64;98620.88;4840569;29;20113;-75
2022/04/17 02:38:20;;;;;;;0.00;0.00;;;;;;;16.13;47.04;98622.59;4840350;29;20033;-75
2022/04/17 02:40:46;;;;;;;0.03;0.03;;;;;;;16.15;47.01;98633.88;4840355;29;20061;-75
2022/04/17 02:43:11;;;;;;;0.00;0.00;;;;;;;16.18;47.18;98627.03;4854419;29;20045;-75
2022/04/17 02:45:37;;;;;;;0.10;0.10;;;;;;;16.22;47.09;98629.88;4854578;29;20038;-74
2022/04/17 02:48:03;;;;;;;0.00;0.00;;;;;;;16.25;47.21;98634.63;4840275;29;20030;-74
2022/04/17 02:50:29;;;;;;;0.20;0.20;;;;;;;16.23;48.33;98634.16;4840356;29;20061;-75
2022/04/17 02:52:57;;;;;;;0.00;0.00;;;;;;;16.16;48.40;98632.75;4840166;29;20050;-74
2022/04/17 02:55:23;;;;;;;0.00;0.00;;;;;;;16.04;48.45;98624.53;4840154;29;20487;-75
2022/04/17 02:57:48;;;;;;;0.00;0.00;;;;;;;15.96;50.11;98625.38;4840633;29;20034;-75
2022/04/17 03:00:15;;;;;;;0.00;0.00;;;;;;;15.95;50.34;98631.88;4840096;29;20034;-74
2022/04/17 03:05:38;;;;;;;0.00;0.00;;;;;;;15.89;53.20;98654.72;4840077;29;20098;-74
2022/04/17 03:08:07;;;;;;;0.73;0.73;;;;;;;15.87;52.54;98656.94;4854313;29;20036;-75
2022/04/17 03:10:34;;;;;;;0.00;0.00;;;;;;;15.83;53.40;98663.00;4840007;29;20045;-75
2022/04/17 03:13:00;;;;;;;0.00;0.00;;;;;;;15.76;53.40;98657.25;4823656;29;20474;-75
2022/04/17 03:15:25;;;;;;;0.00;0.00;;;;;;;15.73;52.19;98660.56;4840230;29;20037;-74
2022/04/17 03:17:51;;;;;;;0.00;0.00;;;;;;;15.65;53.25;98661.41;4840150;29;20033;-74
2022/04/17 03:20:16;;;;;;;0.15;0.15;;;;;;;15.57;54.25;98660.28;4839894;29;20490;-75
2022/04/17 03:22:42;;;;;;;0.10;0.10;;;;;;;15.54;54.58;98666.31;4840167;29;20037;-74
2022/04/17 03:25:08;;;;;;;0.00;0.00;;;;;;;15.50;55.83;98678.84;4839928;29;20030;-75
2022/04/17 03:27:34;;;;;;;0.10;0.10;;;;;;;15.44;55.53;98682.81;4840369;29;20102;-75
2022/04/17 03:30:00;;;;;;;0.00;0.00;;;;;;;15.36;54.79;98685.16;4839901;29;20038;-75
2022/04/17 03:32:25;;;;;;;0.30;0.30;;;;;;;15.28;57.15;98677.09;4839852;29;20030;-74
2022/04/17 03:34:51;;;;;;;0.10;0.10;;;;;;;15.20;59.07;98673.28;4840314;29;20038;-75
2022/04/17 03:37:16;;;;;;;0.00;0.00;;;;;;;15.10;59.09;98668.19;4839819;29;20108;-74
2022/04/17 03:39:43;;;;;;;0.15;0.15;;;;;;;15.04;59.21;98671.03;4839950;29;20033;-74
2022/04/17 03:42:09;;;;;;;1.20;0.43;;;;;;;14.98;58.26;98672.31;4839668;29;20392;-74
2022/04/17 03:44:34;;;;;;;0.57;0.57;;;;;;;14.95;57.53;98683.72;4839696;29;20041;-75
2022/04/17 03:47:00;;;;;;;0.10;0.10;;;;;;;14.89;58.13;98677.69;4839864;29;20479;-75
2022/04/17 03:49:26;;;;;;;0.00;0.00;;;;;;;14.85;60.56;98686.69;4841001;29;20109;-75
2022/04/17 03:51:51;;;;;;;0.17;0.17;;;;;;;14.75;60.66;98689.69;4826732;29;20471;-75
2022/04/17 03:54:17;;;;;;;0.25;0.25;;;;;;;14.63;61.63;98685.63;4843292;29;20089;-74
2022/04/17 03:56:44;;;;;;;0.00;0.00;;;;;;;14.55;61.54;98694.50;4843203;29;20038;-75
2022/04/17 03:59:10;;;;;;;0.00;0.00;;;;;;;14.41;62.26;98691.88;4842954;29;20022;-76
2022/04/17 04:01:35;;;;;;;0.10;0.10;;;;;;;14.28;62.21;98701.66;4842874;29;20041;-75
2022/04/17 04:04:01;;;;;;;0.10;0.10;;;;;;;14.20;62.10;98697.03;4843104;29;20488;-74
2022/04/17 04:06:27;;;;;;;0.10;0.10;;;;;;;14.16;62.06;98702.22;4843031;29;20030;-74
2022/04/17 04:08:53;;;;;;;0.32;0.32;;;;;;;14.14;62.21;98695.56;4842974;29;20033;-74
2022/04/17 04:11:19;;;;;;;0.10;0.10;;;;;;;14.13;63.36;98704.72;4842719;29;20125;-74
2022/04/17 04:13:44;;;;;;;0.10;0.10;;;;;;;14.11;62.83;98702.34;4842891;29;20117;-75
2022/04/17 04:16:10;;;;;;;0.17;0.17;;;;;;;14.15;63.17;98697.94;4842719;29;20057;-74
2022/04/17 04:18:36;;;;;;;0.00;0.00;;;;;;;14.22;62.95;98706.38;4842784;29;20444;-75
2022/04/17 04:21:02;;;;;;;0.00;0.00;;;;;;;14.24;63.08;98706.03;4842732;29;20036;-75
2022/04/17 04:23:32;;;;;;;0.03;0.03;;;;;;;14.20;62.96;98695.13;4842796;29;20029;-74
2022/04/17 04:25:58;;;;;;;0.00;0.00;;;;;;;14.11;65.60;98705.03;4843002;29;20595;-75
2022/04/17 04:28:38;;;;;;;0.10;0.10;;;;;;;14.03;64.96;98695.03;4842478;29;20069;-74
2022/04/17 04:31:07;;;;;;;0.08;0.08;;;;;;;13.96;65.12;98708.09;4842467;29;20542;-74
2022/04/17 04:33:34;;;;;;;0.10;0.10;;;;;;;13.81;65.57;98698.53;4856770;29;20034;-74
2022/04/17 04:36:01;;;;;;;0.10;0.10;;;;;;;13.71;65.58;98702.25;4842566;29;20030;-76
2022/04/17 04:38:27;;;;;;;0.35;0.35;;;;;;;13.61;65.97;98698.69;4842022;29;20109;-75
2022/04/17 04:40:54;;;;;;;0.00;0.00;;;;;;;13.60;66.67;98699.00;4842251;29;20058;-75
2022/04/17 04:43:19;;;;;;;0.00;0.00;;;;;;;13.53;68.55;98691.34;4841179;29;20030;-74
2022/04/17 04:51:13;;;;;;;0.17;0.17;;;;;;;13.08;70.62;98677.81;4841897;29;20057;-75
2022/04/17 04:53:40;;;;;;;0.05;0.05;;;;;;;12.86;72.08;98673.97;4842464;29;20117;-75
2022/04/17 04:56:06;;;;;;;0.13;0.13;;;;;;;12.60;74.29;98687.91;4842001;29;20034;-75
2022/04/17 04:58:32;;;;;;;0.10;0.10;;;;;;;12.46;74.91;98690.59;4825706;29;20034;-76
2022/04/17 05:00:57;;;;;;;0.10;0.10;;;;;;;12.41;75.95;98687.19;4841524;29;20098;-76
2022/04/17 05:03:23;;;;;;;0.20;0.20;;;;;;;12.26;78.19;98672.97;4842112;29;20108;-76
2022/04/17 05:05:48;;;;;;;0.30;0.30;;;;;;;12.12;79.32;98669.47;4825548;29;20122;-76
2022/04/17 05:08:13;;;;;;;0.10;0.10;;;;;;;12.11;80.00;98682.09;4841979;29;20535;-74
2022/04/17 05:10:39;;;;;;;0.47;0.47;;;;;;;12.08;81.02;98669.25;4841909;29;20065;-75
2022/04/17 05:13:05;;;;;;;0.47;0.47;;;;;;;12.03;82.10;98668.56;4841681;29;20086;-76
2022/04/17 05:15:30;;;;;;;1.45;0.60;;;;;;;12.06;82.32;98674.16;4841631;29;20098;-76
2022/04/17 05:17:55;;;;;;;0.10;0.10;;;;;;;12.02;83.18;98659.72;4841493;29;20026;-76
2022/04/17 05:20:21;;;;;;;0.95;0.95;;;;;;;12.03;83.12;98665.91;4841514;29;20030;-77
2022/04/17 05:22:53;;;;;;;0.10;0.10;;;;;;;11.96;84.12;98658.19;4841908;29;20040;-76
2022/04/17 05:25:19;;;;;;;0.20;0.20;;;;;;;12.04;83.85;98660.22;4841454;29;20033;-76
2022/04/17 05:27:45;;;;;;;0.22;0.22;;;;;;;11.98;84.82;98678.28;4841588;29;20090;-76
2022/04/17 05:30:10;;;;;;;0.95;0.95;;;;;;;11.95;85.54;98672.69;4841344;29;20030;-76
2022/04/17 05:32:35;;;;;;;0.88;0.88;;;;;;;11.87;86.37;98657.28;4841286;29;20022;-76
2022/04/17 05:35:01;;;;;;;0.60;0.60;;;;;;;11.81;86.40;98675.31;4841248;29;20034;-76
2022/04/17 05:37:27;;;;;;;0.22;0.22;;;;;;;11.88;85.97;98677.63;4839935;29;20090;-76
2022/04/17 05:39:53;;;;;;;1.35;1.25;;;;;;;11.89;86.82;98684.56;4841384;29;20025;-76
2022/04/17 05:42:18;;;;;;;0.47;0.47;;;;;;;11.83;87.12;98689.25;4841241;29;20064;-77
2022/04/17 05:44:44;;;;;;;0.38;0.38;;;;;;;11.84;87.94;98694.28;4855432;29;20037;-76
2022/04/17 05:47:10;;;;;;;0.17;0.17;;;;;;;11.77;88.43;98688.50;4840778;29;20038;-76
2022/04/17 05:49:35;;;;;;;0.20;0.20;;;;;;;11.77;87.58;98690.41;4841224;29;20463;-76
2022/04/17 05:52:01;;;;;;;0.10;0.10;;;;;;;11.73;88.72;98687.50;4841256;29;20410;-76
2022/04/17 05:54:28;;;;;;;0.65;0.65;;;;;;;11.76;88.41;98691.50;4840939;29;20109;-77
2022/04/17 05:56:53;;;;;;;0.70;0.70;;;;;;;11.70;89.04;98698.81;4841126;29;20042;-76
2022/04/17 05:59:19;;;;;;;0.20;0.20;;;;;;;11.66;89.08;98700.47;4840819;29;20037;-76
2022/04/17 06:01:44;;;;;;;0.82;0.82;;;;;;;11.69;89.63;98697.22;4841016;29;20037;-76
2022/04/17 06:04:10;;;;;;;0.28;0.28;;;;;;;11.65;89.44;98690.84;4840386;29;20579;-76
2022/04/17 06:06:35;;;;;;;0.20;0.20;;;;;;;11.64;89.75;98692.72;4840329;29;20045;-75
2022/04/17 06:09:02;;;;;;;0.50;0.50;;;;;;;11.66;90.17;98687.88;4854637;29;20022;-75
2022/04/17 06:11:27;;;;;;;0.10;0.10;;;;;;;11.71;90.16;98688.91;4840340;29;20037;-74
2022/04/17 06:13:53;;;;;;;0.28;0.28;;;;;;;11.64;89.87;98673.97;4839468;29;20089;-76
2022/04/17 06:16:18;;;;;;;3.05;2.85;;;;;;;11.70;90.21;98655.94;4839714;29;20101;-74
2022/04/17 06:18:44;;;;;;;1.17;1.13;;;;;;;11.71;90.05;98654.06;4840267;29;20038;-76
2022/04/17 06:21:11;;;;;;;1.27;1.17;;;;;;;11.60;90.58;98683.69;4840111;29;20467;-76
2022/04/17 06:23:36;;;;;;;0.20;0.20;;;;;;;11.65;90.58;98650.69;4840103;29;20030;-76
2022/04/17 06:26:02;;;;;;;0.10;0.10;;;;;;;11.59;91.22;98651.84;4840367;29;20066;-76
2022/04/17 06:28:28;;;;;;;0.70;0.70;;;;;;;11.63;90.94;98645.63;4839846;29;20038;-76
2022/04/17 06:30:54;;;;;;;0.10;0.10;;;;;;;11.62;92.86;98659.28;4839968;29;20037;-75
2022/04/17 06:33:19;;;;;;;0.38;0.38;;;;;;;11.67;92.81;98651.19;4839460;29;20034;-75
2022/04/17 06:35:45;;;;;;;0.30;0.30;;;;;;;11.66;93.08;98649.59;4839637;29;20069;-75
2022/04/17 06:38:10;;;;;;;0.00;0.00;;;;;;;11.70;92.80;98655.94;4839898;29;20057;-76
2022/04/17 06:40:36;;;;;;;0.00;0.00;;;;;;;11.62;91.59;98659.28;4853859;29;20037;-76
2022/04/17 06:43:08;;;;;;;0.08;0.08;;;;;;;11.62;92.95;98664.63;4839994;29;20030;-76
2022/04/17 06:45:38;;;;;;;0.22;0.22;;;;;;;11.63;92.91;98653.66;4839617;29;20037;-76
2022/04/17 06:48:15;;;;;;;0.20;0.20;;;;;;;11.58;92.83;98660.97;4839761;29;20438;-76
2022/04/17 06:50:42;;;;;;;0.10;0.10;;;;;;;11.57;93.07;98652.16;4839822;29;20045;-76
2022/04/17 06:53:07;;;;;;;1.92;1.83;;;;;;;11.56;92.92;98653.22;4839737;29;20037;-76
2022/04/17 06:55:33;;;;;;;0.40;0.40;;;;;;;11.53;93.18;98684.06;4839381;29;20697;-76
2022/04/17 06:57:58;;;;;;;1.38;1.00;;;;;;;11.51;93.92;98651.41;4839817;29;20030;-76
2022/04/17 07:00:24;;;;;;;0.73;0.73;;;;;;;11.52;93.57;98657.56;4839172;29;20049;-76
2022/04/17 07:02:50;;;;;;;1.98;1.85;;;;;;;11.44;93.66;98685.00;4840172;29;20072;-76
2022/04/17 07:05:15;;;;;;;0.15;0.15;;;;;;;11.49;93.94;98664.28;4839727;29;20036;-76
2022/04/17 07:07:41;;;;;;;0.20;0.20;;;;;;;11.57;93.66;98664.72;4840222;29;20113;-76
2022/04/17 07:10:08;;;;;;;0.10;0.10;;;;;;;11.53;93.45;98664.50;4840168;29;20030;-76
2022/04/17 07:12:34;;;;;;;0.47;0.47;;;;;;;11.50;93.40;98670.47;4839965;29;20066;-76
2022/04/17 07:15:00;;;;;;;7.28;1.08;;;;;;;11.45;93.37;98681.22;4840171;29;20068;-76
2022/04/17 07:17:37;;;;;;;0.00;0.00;;;;;;;11.44;94.45;98669.72;4839873;29;20041;-76
2022/04/17 07:20:05;;;;;;;1.75;0.80;;;;;;;11.43;94.39;98662.00;4840109;29;20579;-76
2022/04/17 07:22:31;;;;;;;;;;;;;;;11.46;95.24;98662.22;4840092;29;20109;-75
2022/04/17 07:24:57;;;;;;;0.10;0.10;;;;;;;11.46;94.43;98654.19;4825800;29;20015;-76
2022/04/17 07:27:23;;;;;;;0.10;0.10;;;;;;;11.37;95.40;98671.97;4843544;29;20030;-75
2022/04/17 07:29:48;;;;;;;0.63;0.60;;;;;;;11.41;95.86;98656.13;4857786;29;20124;-75
2022/04/17 07:32:14;;;;;;;0.20;0.20;;;;;;;11.36;94.75;98663.16;4843615;29;20053;-75
2022/04/17 07:34:39;;;;;;;0.25;0.25;;;;;;;11.36;95.19;98667.72;4843455;29;20570;-76
2022/04/17 07:37:06;;;;;;;1.30;0.77;;;;;;;11.35;94.78;98656.22;4843281;29;20120;-76
2022/04/17 07:39:31;;;;;;;0.03;0.03;;;;;;;11.42;94.16;98638.97;4857407;29;20456;-76
2022/04/17 07:41:56;;;;;;;0.00;0.00;;;;;;;11.43;94.76;98645.94;4843626;29;20054;-76
2022/04/17 07:44:25;;;;;;;3.03;1.08;;;;;;;11.47;94.25;98644.25;4857363;29;20026;-76
2022/04/17 07:46:50;;;;;;;0.10;0.10;;;;;;;11.52;94.06;98631.59;4843369;29;20042;-76
2022/04/17 07:49:15;;;;;;;0.70;0.30;;;;;;;11.50;94.63;98633.75;4842987;29;20034;-76
2022/04/17 07:51:41;;;;;;;0.63;0.50;;;;;;;11.52;94.52;98652.19;4843305;29;20066;-76
2022/04/17 07:54:06;;;;;;;0.20;0.20;;;;;;;11.48;93.43;98662.69;4843255;29;20030;-76
2022/04/17 07:56:32;;;;;;;0.10;0.10;;;;;;;11.48;93.57;98681.44;4842834;29;20083;-76
2022/04/17 07:58:57;;;;;;;0.40;0.40;;;;;;;11.53;93.80;98661.84;4842600;29;20049;-75
2022/04/17 08:01:23;;;;;;;0.50;0.50;;;;;;;11.47;94.05;98668.34;4846643;29;20435;-76
2022/04/17 08:03:48;;;;;;;0.20;0.20;;;;;;;11.43;92.92;98659.31;4847523;29;20037;-73
2022/04/17 08:06:20;;;;;;;0.20;0.20;;;;;;;11.44;92.99;98656.34;4845024;29;20037;-75
2022/04/17 08:08:46;;;;;;;0.40;0.40;;;;;;;11.43;92.92;98638.69;4843024;29;20030;-75
2022/04/17 08:11:12;;;;;;;0.25;0.25;;;;;;;11.37;93.23;98670.09;4856030;29;20505;-74
2022/04/17 08:13:39;;;;;;;0.20;0.20;;;;;;;11.41;93.80;98672.19;4849001;29;20045;-75
2022/04/17 08:16:06;;;;;;;0.45;0.45;;;;;;;11.32;92.97;98651.44;4842638;29;20410;-75
2022/04/17 08:18:33;;;;;;;0.40;0.40;;;;;;;11.34;92.68;98662.66;4846389;29;20069;-75
2022/04/17 08:20:58;;;;;;;0.03;0.03;;;;;;;11.38;93.12;98654.84;4856918;29;20481;-75
2022/04/17 08:23:24;;;;;;;0.10;0.10;;;;;;;11.29;91.38;98665.41;4848912;29;20108;-74
2022/04/17 08:25:50;;;;;;;0.00;0.00;;;;;;;11.20;92.10;98664.44;4850200;29;20089;-73
2022/04/17 08:28:15;;;;;;;0.20;0.20;;;;;;;11.32;92.24;98680.88;4854858;29;20030;-73
2022/04/17 08:30:41;;;;;;;5.65;1.27;;;;;;;11.25;91.78;98660.91;4842378;29;20109;-73
2022/04/17 08:33:08;;;;;;;0.20;0.20;;;;;;;11.20;91.59;98667.94;4841746;29;20061;-73
2022/04/17 08:35:34;;;;;;;0.10;0.10;;;;;;;11.15;92.23;98667.22;4840861;29;20071;-72
2022/04/17 08:38:02;;;;;;;0.10;0.10;;;;;;;11.08;91.75;98672.91;4842204;29;20495;-75
2022/04/17 08:40:29;;;;;;;0.00;0.00;;;;;;;11.09;92.12;98653.09;4840763;29;20052;-75
2022/04/17 08:42:55;;;;;;;0.10;0.10;;;;;;;11.13;92.51;98645.28;4842418;29;20034;-73
2022/04/17 08:45:21;;;;;;;0.13;0.13;;;;;;;11.07;92.08;98668.66;4841744;29;20116;-74
2022/04/17 08:47:47;;;;;;;4.63;1.08;;;;;;;10.96;91.23;98651.94;4842213;29;20518;-74
2022/04/17 08:50:17;;;;;;;0.20;0.20;;;;;;;10.89;92.05;98635.44;4841766;29;20061;-74
2022/04/17 08:52:53;;;;;;;0.00;0.00;;;;;;;10.96;93.27;98633.22;4841869;29;20406;-74
2022/04/17 08:55:19;;;;;;;0.20;0.20;;;;;;;10.92;92.50;98650.91;4841944;29;20046;-74
2022/04/17 08:57:44;;;;;;;0.75;0.75;;;;;;;10.85;91.68;98631.72;4841272;29;20403;-74
2022/04/17 09:00:14;;;;;;;0.28;0.28;;;;;;;10.76;91.45;98641.50;4869857;29;20036;-74
2022/04/17 09:02:40;;;;;;;0.15;0.15;;;;;;;10.80;91.93;98648.66;4841883;29;20037;-74
2022/04/17 09:05:17;;;;;;;0.05;0.05;;;;;;;10.80;91.63;98637.97;4841828;29;20038;-74
2022/04/17 09:07:53;;;;;;;0.10;0.10;;;;;;;10.72;92.06;98636.72;4841750;29;20407;-74
2022/04/17 09:10:31;;;;;;;0.17;0.17;;;;;;;10.79;91.67;98630.22;4841314;29;20427;-74
2022/04/17 09:13:01;;;;;;;0.00;0.00;;;;;;;10.64;91.51;98634.66;4841430;29;20069;-74
2022/04/17 09:15:35;;;;;;;0.28;0.28;;;;;;;10.62;92.34;98641.38;4841456;29;20041;-75
2022/04/17 09:18:05;;;;;;;0.50;0.50;;;;;;;10.61;92.53;98645.13;4841333;29;20038;-74
2022/04/17 09:20:31;;;;;;;0.10;0.10;;;;;;;10.53;92.58;98647.38;4841364;29;20073;-74
2022/04/17 09:23:01;;;;;;;0.45;0.45;;;;;;;10.60;93.25;98646.25;4841071;29;20058;-74
2022/04/17 09:25:28;;;;;;;0.10;0.10;;;;;;;10.62;92.92;98634.19;4841067;29;20052;-74
2022/04/17 09:28:01;;;;;;;0.45;0.45;;;;;;;10.59;93.01;98636.63;4841697;29;20086;-74
2022/04/17 09:30:40;;;;;;;1.75;1.33;;;;;;;10.56;93.07;98640.66;4841169;29;20493;-74
2022/04/17 09:33:11;;;;;;;0.20;0.20;;;;;;;10.66;92.93;98615.69;4841532;29;20402;-74
2022/04/17 09:35:37;;;;;;;0.00;0.00;;;;;;;10.74;92.17;98612.34;4839786;29;20112;-74
2022/04/17 09:38:04;;;;;;;0.00;0.00;;;;;;;10.84;92.01;98611.41;4841540;29;20057;-72
2022/04/17 09:40:31;;;;;;;0.70;0.68;;;;;;;10.78;92.31;98601.88;4840974;29;20034;-74
2022/04/17 09:43:14;;;;;;;0.15;0.15;;;;;;;10.77;91.91;98598.41;4841170;29;20033;-72
2022/04/17 09:45:59;;;;;;;0.00;0.00;;;;;;;10.78;92.12;98600.00;4841295;29;20037;-75
2022/04/17 09:48:29;;;;;;;0.00;0.00;;;;;;;10.78;91.90;98601.88;4840938;29;20045;-75
2022/04/17 09:50:55;;;;;;;1.10;1.10;;;;;;;10.66;93.00;98604.97;4841280;29;20072;-75
2022/04/17 09:53:37;;;;;;;0.00;0.00;;;;;;;10.71;92.93;98608.38;4841306;29;20113;-75
2022/04/17 09:56:11;;;;;;;0.70;0.65;;;;;;;10.74;93.19;98607.00;4841210;29;20034;-73
2022/04/17 09:58:42;;;;;;;0.57;0.57;;;;;;;10.70;92.36;98580.03;4844380;29;20084;-74
2022/04/17 10:01:08;;;;;;;0.00;0.00;;;;;;;10.70;93.24;98581.91;4846066;29;20505;-74
2022/04/17 10:03:36;;;;;;;0.17;0.17;;;;;;;10.78;92.33;98572.44;4840805;29;20034;-74
2022/04/17 10:06:02;;;;;;;0.10;0.10;;;;;;;10.76;92.64;98574.63;4840706;29;20030;-74
2022/04/17 10:08:28;;;;;;;0.22;0.22;;;;;;;10.56;90.87;98587.97;4843483;29;20042;-79
2022/04/17 10:11:19;;;;;;;0.20;0.20;;;;;;;10.52;90.93;98618.25;4854675;29;20048;-82
2022/04/17 10:13:46;;;;;;;0.30;0.30;;;;;;;10.47;90.61;98587.00;4853412;29;20042;-79
2022/04/17 10:16:12;;;;;;;0.27;0.27;;;;;;;10.45;91.52;98599.88;4854255;29;20049;-78
2022/04/17 10:18:39;;;;;;;0.17;0.17;;;;;;;10.45;90.79;98591.06;4839108;29;20033;-79
2022/04/17 10:21:07;;;;;;;0.00;0.00;;;;;;;10.46;90.95;98590.78;4839228;29;20124;-78
2022/04/17 10:23:37;;;;;;;0.10;0.10;;;;;;;10.47;91.05;98586.22;4839241;29;20537;-78
2022/04/17 10:26:04;;;;;;;0.10;0.10;;;;;;;10.34;91.09;98603.72;4841119;29;20045;-78
2022/04/17 10:28:39;;;;;;;0.10;0.10;;;;;;;10.38;90.96;98594.88;4854637;29;20405;-78
2022/04/17 10:31:20;;;;;;;0.17;0.17;;;;;;;10.34;90.98;98633.09;4854326;29;20044;-80
2022/04/17 10:34:23;;;;;;;0.00;0.00;;;;;;;10.43;91.61;98602.03;4838376;29;20475;-79
2022/04/17 10:37:03;;;;;;;0.00;0.00;;;;;;;10.45;91.75;98588.38;4839742;29;20101;-84
2022/04/17 10:39:35;;;;;;;0.10;0.10;;;;;;;10.38;91.35;98594.88;4853902;29;20517;-80
2022/04/17 10:42:01;;;;;;;0.22;0.22;;;;;;;10.38;91.35;98605.56;4847539;29;20137;-79
2022/04/17 10:44:31;;;;;;;0.63;0.63;;;;;;;10.35;91.44;98621.34;4853929;29;20125;-79
2022/04/17 10:46:57;;;;;;;0.00;0.00;;;;;;;10.34;91.84;98607.19;4854233;29;20098;-80
2022/04/17 10:49:27;;;;;;;0.00;0.00;;;;;;;10.28;91.16;98621.69;4869883;29;20026;-79
2022/04/17 10:51:54;;;;;;;0.40;0.40;;;;;;;10.35;91.59;98611.47;4854584;29;20046;-87
2022/04/17 10:54:23;;;;;;;0.22;0.22;;;;;;;10.44;91.63;98611.66;4838599;29;20042;-78
2022/04/17 10:57:00;;;;;;;0.00;0.00;;;;;;;10.49;91.81;98608.91;4839181;29;20117;-77
2022/04/17 10:59:30;;;;;;;0.00;0.00;;;;;;;10.33;92.27;98605.59;4843963;29;20025;-79
2022/04/17 11:02:07;;;;;;;0.00;0.00;;;;;;;10.35;91.88;98606.13;4843764;29;20410;-77
2022/04/17 11:04:55;;;;;;;0.00;0.00;;;;;;;10.34;91.51;98614.41;4843425;29;20033;-77
2022/04/17 11:07:29;;;;;;;0.05;0.05;;;;;;;10.43;90.88;98603.94;4832558;29;20525;-76
2022/04/17 11:10:19;;;;;;;0.30;0.30;;;;;;;10.36;90.83;98604.22;4843276;29;20050;-78
2022/04/17 11:12:51;;;;;;;1.55;1.08;;;;;;;10.36;91.52;98601.56;4842801;29;20041;-78
2022/04/17 11:15:17;;;;;;;0.30;0.30;;;;;;;10.28;91.92;98612.88;4843323;29;20073;-78
2022/04/17 11:17:43;;;;;;;0.08;0.08;;;;;;;10.31;92.18;98604.28;4843490;29;20465;-75
2022/04/17 11:20:09;;;;;;;0.20;0.20;;;;;;;10.32;92.57;98604.00;4842718;29;20038;-76
2022/04/17 11:22:37;;;;;;;0.47;0.47;;;;;;;10.24;92.99;98597.41;4843221;29;20041;-77
2022/04/17 11:25:06;;;;;;;0.25;0.25;;;;;;;10.27;93.10;98600.63;4843396;29;20046;-76
2022/04/17 11:27:31;;;;;;;0.10;0.10;;;;;;;10.23;93.40;98608.41;4842505;29;20034;-78
2022/04/17 11:29:58;;;;;;;0.40;0.40;;;;;;;10.21;93.70;98603.31;4844116;29;20418;-78
2022/04/17 11:32:25;;;;;;;0.08;0.08;;;;;;;10.21;94.32;98595.31;4840321;29;20064;-78
2022/04/17 11:34:54;;;;;;;0.30;0.30;;;;;;;10.29;93.32;98579.72;4843238;29;20030;-77
2022/04/17 11:37:20;;;;;;;0.13;0.13;;;;;;;10.27;93.47;98600.63;4873059;29;20447;-77
2022/04/17 11:39:46;;;;;;;2.30;2.15;;;;;;;10.30;92.88;98584.00;4842602;29;20034;-78
2022/04/17 11:42:12;;;;;;;0.20;0.20;;;;;;;10.17;92.62;98585.50;4856963;29;20521;-78
2022/04/17 11:44:41;;;;;;;0.10;0.10;;;;;;;10.00;93.82;98581.38;4856995;29;20045;-79
2022/04/17 11:47:10;;;;;;;1.08;1.08;;;;;;;9.90;93.14;98581.50;4856994;29;20410;-77